East Corinth, VT (05040)

02:28 AM EST del 09 Febbraio 2016 (GMT -0500)
West Newbury Hills | | Change Station
CLOSE
Current Station
Stazione meteo personale
Location: East Corinth, VT
Altitudine: 1325 ft
Stazioni meteo nelle vicinanze

Alt. 1325 ft 44.10 °N, 72.19 °W | Updated 9 seconds ago

Neve
Neve
16.3 °F
Sembra 16 °F
N
0.0
Vento Variabile Vento da ONO
Gusts 0.0 mph

Oggi
Massima -- | Minima -- °F
--% Possibilità di precip.
Ieri
Massima -- | Minima -- °F
Precip. -- in
Pressione 29.74 in
Visibilità 2.0 miglia
Nuvole Coperto 3300 ft
Raffreddamento del vento 16 °F
Punto di rugiada 13 °F
Umidità 87%
Piovosità 0.00 in
Spessore del manto nevoso Non disponibile.
6:57 AM 5:09 PM
Luna nuova, 1% visible
SPECI KMPV 090708Z AUTO 00000KT 2SM -SN BR OVC033 M08/M10 A2974 RMK AO2 P0000 T10831100
Pressione 29.74 in
Visibilità 2.0 miglia
Nuvole Coperto 3300 ft
Raffreddamento del vento 16 °F
Punto di rugiada 13 °F
Umidità 87%
Piovosità 0.00 in
Spessore del manto nevoso Non disponibile.
6:57 AM 5:09 PM
Luna nuova, 1% visible
SPECI KMPV 090708Z AUTO 00000KT 2SM -SN BR OVC033 M08/M10 A2974 RMK AO2 P0000 T10831100

10-Day Weather Forecast

Almanac

Astronomia

Feb. 09, 2016 Alba Tramonto
Ora attuale
Crepuscolo civile
Crepuscolo nautico
Crepuscolo astronomico
Luna
Estensione della luce visibile
Lunghezza del giorno
Tomorrow will be .
, % of the Moon is Illuminated

Gli estremi di oggi

State Highs State Lows

Community

WunderPhotos

Upload Photos

1,891,571 foto caricate!

WunderBlog® & News

Nearby

Qualità dell'aria

  Qualità dell'aria Indice AQ Inquinante
Not available.

Profondità neve

Stazione Profondità Altitudine

Attività sismica

Città  Distanza Mag. Data & Ora
Minimo Magnitudo Mostrato è 2.5.

Temperature delle acque costiere

Località Temperatura

Stations

Stazioni meteo nelle vicinanze

Ubicazione della stazione Temp. Raffreddamento del vento Punto di rugiada Umidità Vento Precip. Alt. Aggiornato Tipo
                   

Watches & Warnings

There are currently no watches in effect.